Time;durP1;ratioP1;P1;durP2;ratioP2;P2;SDS_P1;SDS_P2;PMS_P1;PMS_P2;Temp;Humidity;BMP_temperature;BMP_pressure;BME280_temperature;BME280_humidity;BME280_pressure;Samples;Min_cycle;Max_cycle;Signal;HPM_P1;HPM_P2
2021/08/04 00:01:34;;;;;;;;;6.00;4.25;;;;;26.62;42.03;101199.50;4933661;28;45342;-71
2021/08/04 00:03:59;;;;;;;;;5.25;5.00;;;;;26.65;42.34;101206.28;4935763;28;47784;-71
2021/08/04 00:06:24;;;;;;;;;5.75;5.75;;;;;26.60;42.28;101204.22;4935722;28;45502;-71
2021/08/04 00:08:50;;;;;;;;;4.75;4.75;;;;;26.68;42.31;101205.06;4937730;28;45324;-71
2021/08/04 00:11:15;;;;;;;;;7.00;7.00;;;;;26.68;42.67;101205.06;4935325;28;45396;-71
2021/08/04 00:13:40;;;;;;;;;6.00;5.75;;;;;26.67;42.60;101204.25;4935399;28;45607;-71
2021/08/04 00:16:06;;;;;;;;;5.50;5.50;;;;;26.65;42.78;101197.47;4935524;28;45436;-71
2021/08/04 00:18:31;;;;;;;;;6.00;6.00;;;;;26.68;42.10;101197.88;4933398;28;45436;-71
2021/08/04 00:20:57;;;;;;;;;6.50;5.00;;;;;26.70;42.46;101201.16;4936891;28;45376;-71
2021/08/04 00:23:22;;;;;;;;;5.25;5.00;;;;;26.68;42.66;101192.53;4935083;28;46029;-71
2021/08/04 00:25:47;;;;;;;;;5.00;5.00;;;;;26.68;41.99;101195.22;4935205;28;45408;-71
2021/08/04 00:28:13;;;;;;;;;6.75;5.25;;;;;26.71;42.75;101200.16;4934108;28;45417;-71
2021/08/04 00:30:38;;;;;;;;;5.00;5.00;;;;;26.72;42.49;101207.13;4937073;28;45302;-71
2021/08/04 00:33:03;;;;;;;;;4.75;4.75;;;;;26.73;42.12;101211.44;4937535;28;46205;-71
2021/08/04 00:35:29;;;;;;;;;7.00;5.75;;;;;26.73;42.66;101210.59;4935408;28;45489;-71
2021/08/04 00:37:54;;;;;;;;;5.75;4.00;;;;;26.73;42.08;101207.94;4936554;28;45240;-71
2021/08/04 00:40:20;;;;;;;;;4.50;4.50;;;;;26.68;42.10;101199.72;4936943;28;45559;-71
2021/08/04 00:42:45;;;;;;;;;6.00;6.00;;;;;26.73;42.30;101207.94;4936687;28;46198;-71
2021/08/04 00:45:11;;;;;;;;;4.00;4.00;;;;;26.74;42.33;101217.59;4937033;28;45289;-71
2021/08/04 00:47:37;;;;;;;;;5.75;5.00;;;;;26.71;42.14;101205.47;4937200;28;45381;-71
2021/08/04 00:50:03;;;;;;;;;6.75;6.25;;;;;26.74;42.63;101204.25;4936699;28;45520;-71
2021/08/04 00:52:29;;;;;;;;;6.00;6.00;;;;;26.74;42.36;101212.25;4936131;28;46403;-71
2021/08/04 00:54:54;;;;;;;;;4.00;4.00;;;;;26.74;42.29;101209.59;4936830;28;45341;-71
2021/08/04 00:57:20;;;;;;;;;5.00;5.00;;;;;26.71;42.48;101212.66;4934322;28;45369;-71
2021/08/04 00:59:46;;;;;;;;;6.75;6.00;;;;;26.74;42.37;101209.59;4937080;28;45357;-71
2021/08/04 01:02:23;;;;;;;;;5.00;5.00;;;;;26.71;42.50;101210.00;4936339;28;46354;-71
2021/08/04 01:04:51;;;;;;;;;6.50;6.00;;;;;26.74;42.53;101207.75;4936163;28;45452;-71
2021/08/04 01:07:29;;;;;;;;;5.25;4.75;;;;;26.74;42.12;101204.25;4935961;28;45371;-71
2021/08/04 01:10:00;;;;;;;;;5.00;5.00;;;;;26.75;42.27;101205.91;4936260;28;45449;-71
2021/08/04 01:12:34;;;;;;;;;4.00;4.00;;;;;26.72;42.41;101204.47;4936223;28;46924;-71
2021/08/04 01:15:03;;;;;;;;;4.00;4.00;;;;;26.74;42.54;101204.25;4937003;28;45466;-71
2021/08/04 01:17:30;;;;;;;;;6.00;5.25;;;;;26.74;42.04;101196.25;4936520;28;45639;-71
2021/08/04 01:20:01;;;;;;;;;6.75;5.75;;;;;26.76;42.26;101196.03;4936251;28;45443;-71
2021/08/04 01:22:38;;;;;;;;;6.00;6.00;;;;;26.73;42.38;101199.94;4935685;28;46012;-71
2021/08/04 01:25:14;;;;;;;;;4.50;4.50;;;;;26.73;42.33;101205.25;4936143;28;45432;-71
2021/08/04 01:27:43;;;;;;;;;5.00;5.00;;;;;26.72;42.36;101201.81;4921530;28;45431;-71
2021/08/04 01:30:10;;;;;;;;;7.00;5.00;;;;;26.74;42.35;101197.06;4939147;28;45255;-71
2021/08/04 01:32:36;;;;;;;;;5.00;5.00;;;;;26.72;41.98;101199.13;4939225;28;47160;-71
2021/08/04 01:35:03;;;;;;;;;4.50;4.25;;;;;26.73;42.40;101195.41;4939105;28;45805;-71
2021/08/04 01:37:31;;;;;;;;;5.50;5.50;;;;;26.71;42.59;101184.13;4939399;28;45331;-71
2021/08/04 01:39:58;;;;;;;;;5.75;5.75;;;;;26.72;42.48;101185.78;4939580;28;45326;-71
2021/08/04 01:42:24;;;;;;;;;5.00;5.00;;;;;26.71;42.26;101184.13;4939245;28;47286;-71
2021/08/04 01:44:51;;;;;;;;;4.50;4.50;;;;;26.72;42.05;101190.28;4939968;28;45484;-71
2021/08/04 01:47:18;;;;;;;;;5.25;3.25;;;;;26.72;42.49;101187.63;4939284;28;45299;-71
2021/08/04 01:49:45;;;;;;;;;5.00;4.00;;;;;26.72;42.62;101191.13;4938821;28;45556;-71
2021/08/04 01:52:10;;;;;;;;;5.25;4.75;;;;;26.71;42.25;101183.31;4939278;28;46220;-72
2021/08/04 01:54:37;;;;;;;;;6.00;5.00;;;;;26.71;42.22;101176.13;4939434;28;45308;-71
2021/08/04 01:57:02;;;;;;;;;5.00;5.00;;;;;26.70;42.66;101176.34;4939984;28;45350;-71
2021/08/04 01:59:28;;;;;;;;;4.25;4.25;;;;;26.69;42.10;101177.34;4939046;28;45342;-71
2021/08/04 02:02:13;;;;;;;;;5.00;4.00;;;;;26.72;42.44;101177.78;4939060;28;46358;-71
2021/08/04 02:04:38;;;;;;;;;4.75;4.25;;;;;26.71;42.38;101170.78;4938748;28;47414;-71
2021/08/04 02:07:12;;;;;;;;;3.50;3.50;;;;;26.71;42.49;101165.44;4939051;28;45645;-71
2021/08/04 02:09:47;;;;;;;;;6.50;5.50;;;;;26.71;42.63;101172.63;4924113;28;45406;-71
2021/08/04 02:12:12;;;;;;;;;5.50;5.50;;;;;26.70;42.30;101157.66;4936237;28;47428;-71
2021/08/04 02:14:51;;;;;;;;;4.00;4.00;;;;;26.69;42.11;101167.50;4939262;28;45471;-71
2021/08/04 02:17:24;;;;;;;;;7.00;6.00;;;;;26.69;42.18;101164.84;4939107;28;45419;-71
2021/08/04 02:20:12;;;;;;;;;6.75;6.00;;;;;26.70;42.24;101165.66;4938708;28;45357;-71
2021/08/04 02:22:50;;;;;;;;;4.00;3.50;;;;;26.69;42.54;101164.00;4938607;28;46271;-71
2021/08/04 02:25:28;;;;;;;;;3.25;3.25;;;;;26.68;42.32;101157.84;4938585;28;45447;-71
2021/08/04 02:27:56;;;;;;;;;5.50;5.50;;;;;26.69;42.44;101162.16;4938681;28;45504;-71
2021/08/04 02:30:22;;;;;;;;;7.00;5.00;;;;;26.70;42.14;101158.47;4938862;28;45449;-71
2021/08/04 02:32:50;;;;;;;;;4.00;4.00;;;;;26.70;42.10;101153.13;4936768;28;45448;-71
2021/08/04 02:35:16;;;;;;;;;7.00;5.00;;;;;26.71;42.16;101160.13;4938346;28;45558;-71
2021/08/04 02:37:44;;;;;;;;;7.00;7.00;;;;;26.70;42.56;101155.78;4938729;28;45525;-71
2021/08/04 02:40:10;;;;;;;;;5.25;4.75;;;;;26.70;42.20;101146.97;4938405;28;45473;-71
2021/08/04 02:42:35;;;;;;;;;5.00;4.25;;;;;26.71;42.09;101159.28;4938069;28;47419;-71
2021/08/04 02:45:04;;;;;;;;;4.00;4.00;;;;;26.71;42.31;101154.78;4939029;28;45272;-71
2021/08/04 02:47:30;;;;;;;;;6.75;5.75;;;;;26.71;42.29;101153.94;4936854;28;45450;-71
2021/08/04 02:49:56;;;;;;;;;4.50;4.50;;;;;26.70;42.52;101152.31;4938157;28;45377;-71
2021/08/04 02:52:21;;;;;;;;;5.50;4.00;;;;;26.70;42.28;101150.44;4938470;28;46082;-71
2021/08/04 02:54:47;;;;;;;;;5.25;5.00;;;;;26.70;42.21;101146.97;4938593;28;45673;-71
2021/08/04 02:57:13;;;;;;;;;4.00;4.00;;;;;26.69;42.68;101142.66;4938918;28;45475;-71
2021/08/04 02:59:39;;;;;;;;;4.75;4.75;;;;;26.69;42.50;101151.50;4938833;28;45583;-71
2021/08/04 03:02:05;;;;;;;;;4.50;4.25;;;;;26.68;42.33;101155.19;4937707;28;46106;-71
2021/08/04 03:04:30;;;;;;;;;4.00;4.00;;;;;26.65;42.13;101142.25;4938004;28;45399;-71
2021/08/04 03:06:55;;;;;;;;;3.50;3.50;;;;;26.69;42.31;101148.00;4938242;28;45520;-71
2021/08/04 03:09:21;;;;;;;;;5.00;5.00;;;;;26.66;42.62;101141.22;4938317;28;45348;-71
2021/08/04 03:11:46;;;;;;;;;6.00;5.75;;;;;26.65;42.54;101138.78;4938585;28;45315;-71
2021/08/04 03:14:11;;;;;;;;;7.00;5.75;;;;;26.67;42.29;101140.22;4938069;28;45426;-71
2021/08/04 03:16:37;;;;;;;;;4.25;4.25;;;;;26.66;42.05;101135.88;4937764;28;45544;-71
2021/08/04 03:19:03;;;;;;;;;6.25;6.00;;;;;26.69;42.26;101140.00;4938194;28;47779;-70
2021/08/04 03:21:28;;;;;;;;;4.25;3.00;;;;;26.68;42.03;101133.00;4937888;28;45459;-71
2021/08/04 03:23:53;;;;;;;;;4.75;4.75;;;;;26.67;42.25;101129.53;4938633;28;45513;-71
2021/08/04 03:26:19;;;;;;;;;6.00;6.00;;;;;26.66;41.75;101124.38;4937812;28;45504;-71
2021/08/04 03:28:44;;;;;;;;;5.00;5.00;;;;;26.67;42.36;101134.03;4937741;28;45432;-71
2021/08/04 03:31:10;;;;;;;;;5.00;5.00;;;;;26.67;42.16;101137.53;4937734;28;46291;-71
2021/08/04 03:33:35;;;;;;;;;5.00;5.00;;;;;26.66;42.59;101130.56;4937876;28;45430;-71
2021/08/04 03:36:00;;;;;;;;;5.75;5.75;;;;;26.59;42.41;101119.88;4938283;28;45861;-71
2021/08/04 03:38:26;;;;;;;;;7.00;7.00;;;;;26.63;42.12;101131.78;4937732;28;45452;-71
2021/08/04 03:40:51;;;;;;;;;4.00;4.00;;;;;26.65;42.14;101128.09;4937433;28;46307;-71
2021/08/04 03:43:16;;;;;;;;;7.25;6.00;;;;;26.67;42.05;101134.03;4933647;28;51098;-71
2021/08/04 03:45:41;;;;;;;;;5.00;5.00;;;;;26.66;42.30;101130.56;4937634;28;45330;-71
2021/08/04 03:48:07;;;;;;;;;5.75;5.00;;;;;26.65;42.44;101131.56;4938456;28;45299;-71
2021/08/04 03:50:32;;;;;;;;;6.00;6.00;;;;;26.66;42.37;101125.22;4937322;28;47112;-71
2021/08/04 03:52:58;;;;;;;;;5.50;5.50;;;;;26.67;42.00;101126.88;4936456;28;46098;-71
2021/08/04 03:55:23;;;;;;;;;6.00;6.00;;;;;26.67;41.87;101124.19;4937517;28;45341;-71
2021/08/04 03:57:49;;;;;;;;;6.50;5.50;;;;;26.68;42.32;101131.16;4937550;28;45352;-71
2021/08/04 04:00:14;;;;;;;;;5.75;5.50;;;;;26.66;42.29;101127.06;4937284;28;46396;-71
2021/08/04 04:02:41;;;;;;;;;5.50;5.50;;;;;26.68;42.25;101133.00;4936756;28;45321;-71
2021/08/04 04:05:07;;;;;;;;;5.00;5.00;;;;;26.67;42.54;101134.03;4937402;28;45459;-71
2021/08/04 04:07:34;;;;;;;;;6.50;5.00;;;;;26.62;41.98;101124.00;4937097;28;45500;-71
2021/08/04 04:09:59;;;;;;;;;5.75;5.25;;;;;26.66;42.13;101135.06;4937511;28;47373;-71
2021/08/04 04:12:25;;;;;;;;;4.25;4.25;;;;;26.66;42.15;101143.06;4937091;28;45365;-71
2021/08/04 04:14:50;;;;;;;;;6.50;6.50;;;;;26.63;42.22;101137.13;4937538;28;45413;-71
2021/08/04 04:17:15;;;;;;;;;4.50;4.00;;;;;26.63;42.27;101137.13;4937285;28;45767;-71
2021/08/04 04:19:40;;;;;;;;;4.50;4.50;;;;;26.64;42.11;101137.94;4937021;28;46207;-71
2021/08/04 04:22:06;;;;;;;;;6.75;6.75;;;;;26.65;42.19;101138.78;4937121;28;45337;-71
2021/08/04 04:24:31;;;;;;;;;8.50;6.25;;;;;26.61;42.13;101144.50;4937319;28;45389;-71
2021/08/04 04:26:57;;;;;;;;;6.00;5.00;;;;;26.63;41.99;101150.47;4937563;28;45429;-71
2021/08/04 04:29:22;;;;;;;;;5.00;5.00;;;;;26.62;41.86;101145.34;4936485;28;46036;-71
2021/08/04 04:31:47;;;;;;;;;5.25;5.25;;;;;26.63;42.45;101145.13;4936952;28;45522;-71
2021/08/04 04:34:13;;;;;;;;;4.00;4.00;;;;;26.63;42.26;101150.47;4936903;28;45373;-71
2021/08/04 04:36:38;;;;;;;;;6.75;6.25;;;;;26.64;42.12;101137.94;4937129;28;45449;-71
2021/08/04 04:39:03;;;;;;;;;7.00;6.00;;;;;26.62;42.21;101142.66;4937313;28;46456;-71
2021/08/04 04:41:29;;;;;;;;;6.50;6.25;;;;;26.63;42.10;101150.47;4936790;28;46477;-71
2021/08/04 04:43:54;;;;;;;;;6.00;6.00;;;;;26.60;42.05;101145.53;4936537;28;45427;-71
2021/08/04 04:46:20;;;;;;;;;6.50;6.50;;;;;26.60;42.13;101142.84;4936780;28;45480;-71
2021/08/04 04:48:45;;;;;;;;;6.00;5.25;;;;;26.62;42.11;101146.13;4937063;28;46030;-71
2021/08/04 04:51:10;;;;;;;;;5.00;4.75;;;;;26.62;42.12;101140.00;4937011;28;45450;-71
2021/08/04 04:53:36;;;;;;;;;7.50;6.75;;;;;26.64;42.11;101143.28;4937170;28;45369;-71
2021/08/04 04:56:01;;;;;;;;;5.00;5.00;;;;;26.64;41.99;101143.28;4936804;28;45430;-71
2021/08/04 04:58:26;;;;;;;;;6.25;6.25;;;;;26.65;41.92;101142.25;4935937;28;47040;-71
2021/08/04 05:00:52;;;;;;;;;6.00;6.00;;;;;26.63;42.22;101146.97;4936614;28;45236;-71
2021/08/04 05:03:17;;;;;;;;;6.50;6.50;;;;;26.62;42.30;101142.66;4937155;28;45381;-71
2021/08/04 05:05:43;;;;;;;;;7.00;4.75;;;;;26.62;42.02;101148.81;4943460;28;45444;-71
2021/08/04 05:08:08;;;;;;;;;8.00;6.00;;;;;26.56;41.82;101138.97;4942629;28;45298;-71
2021/08/04 05:10:34;;;;;;;;;6.00;6.00;;;;;26.60;41.77;101139.34;4942780;28;45354;-71
2021/08/04 05:12:59;;;;;;;;;7.00;7.00;;;;;26.61;42.34;101139.19;4953599;28;45446;-71
2021/08/04 05:15:24;;;;;;;;;8.75;6.75;;;;;26.64;41.85;101145.94;4942904;28;45431;-71
2021/08/04 05:17:50;;;;;;;;;6.00;6.00;;;;;26.65;41.90;101136.09;4943366;28;46561;-71
2021/08/04 05:20:15;;;;;;;;;7.50;7.50;;;;;26.65;42.06;101136.09;4941343;28;45434;-71
2021/08/04 05:22:41;;;;;;;;;4.75;4.75;;;;;26.64;41.96;101143.28;4942801;28;45502;-71
2021/08/04 05:25:07;;;;;;;;;6.00;4.75;;;;;26.62;42.13;101140.81;4942785;28;45342;-71
2021/08/04 05:27:33;;;;;;;;;6.75;6.75;;;;;26.63;42.34;101137.13;4942362;28;46296;-71
2021/08/04 05:29:58;;;;;;;;;5.75;4.50;;;;;26.63;42.10;101142.44;4943143;28;45372;-71
2021/08/04 05:32:23;;;;;;;;;7.00;6.00;;;;;26.61;41.91;101141.84;4942655;28;45382;-71
2021/08/04 05:34:49;;;;;;;;;6.75;6.75;;;;;26.63;41.79;101144.28;4942491;28;45352;-71
2021/08/04 05:37:14;;;;;;;;;5.75;5.75;;;;;26.58;42.32;101147.59;4942497;28;45615;-71
2021/08/04 05:39:40;;;;;;;;;6.25;5.75;;;;;26.62;41.79;101140.81;4942465;28;45503;-71
2021/08/04 05:42:05;;;;;;;;;7.25;7.25;;;;;26.61;41.81;101139.19;4943308;28;45333;-71
2021/08/04 05:44:30;;;;;;;;;7.00;5.00;;;;;26.60;42.11;101136.69;4942416;28;45271;-71
2021/08/04 05:46:56;;;;;;;;;5.25;5.25;;;;;26.61;41.97;101141.84;4942207;28;46365;-71
2021/08/04 05:49:22;;;;;;;;;6.00;5.75;;;;;26.61;42.13;101146.34;4942463;28;45455;-71
2021/08/04 05:51:49;;;;;;;;;5.75;5.75;;;;;26.60;42.21;101145.53;4942520;28;45635;-71
2021/08/04 05:54:15;;;;;;;;;6.75;6.75;;;;;26.56;41.92;101149.63;4942834;28;45421;-71
2021/08/04 05:56:40;;;;;;;;;6.00;6.00;;;;;26.59;41.94;101148.41;4942343;28;45438;-71
2021/08/04 05:59:05;;;;;;;;;7.25;7.25;;;;;26.59;42.26;101162.56;4941957;28;48401;-71
2021/08/04 06:01:30;;;;;;;;;7.00;7.00;;;;;26.60;42.34;101161.53;4942291;28;45293;-71
2021/08/04 06:03:56;;;;;;;;;6.00;5.50;;;;;26.59;42.41;101156.41;4942296;28;45397;-71
2021/08/04 06:06:21;;;;;;;;;7.25;7.25;;;;;26.58;42.13;101147.59;4942549;28;46912;-71
2021/08/04 06:08:46;;;;;;;;;5.25;5.25;;;;;26.57;42.15;101147.78;4942666;28;45489;-71
2021/08/04 06:11:12;;;;;;;;;6.50;6.50;;;;;26.59;42.28;101154.56;4941920;28;45544;-71
2021/08/04 06:13:37;;;;;;;;;6.00;6.00;;;;;26.60;41.92;101158.88;4942246;28;45476;-71
2021/08/04 06:16:03;;;;;;;;;4.25;4.25;;;;;26.60;41.71;101164.19;4939157;28;46185;-71
2021/08/04 06:18:28;;;;;;;;;5.00;5.00;;;;;26.58;41.70;101163.59;4939038;28;45421;-70
2021/08/04 06:20:53;;;;;;;;;7.50;7.00;;;;;26.57;41.86;101151.25;4939790;28;45991;-72
2021/08/04 06:23:19;;;;;;;;;7.00;7.00;;;;;26.69;41.73;101162.16;4936279;28;45417;-71
2021/08/04 06:25:44;;;;;;;;;4.75;4.50;;;;;26.77;42.04;101150.47;4937606;28;45331;-72
2021/08/04 06:28:09;;;;;;;;;3.25;3.00;;;;;26.91;41.88;101155.78;4936727;28;45571;-71
2021/08/04 06:30:35;;;;;;;;;5.75;5.75;;;;;27.04;41.67;101152.28;4936952;28;45947;-71
2021/08/04 06:33:00;;;;;;;;;6.00;4.00;;;;;27.15;41.40;101165.03;4938370;28;45256;-71
2021/08/04 06:35:25;;;;;;;;;6.00;6.00;;;;;27.24;41.61;101154.97;4933480;28;46306;-71
2021/08/04 06:37:52;;;;;;;;;6.00;6.00;;;;;27.33;41.23;101149.38;4935164;28;45437;-71
2021/08/04 06:40:17;;;;;;;;;6.00;6.00;;;;;27.45;40.99;101157.59;4936565;28;45497;-72
2021/08/04 06:42:43;;;;;;;;;7.25;6.00;;;;;27.53;41.11;101157.38;4936896;28;45427;-72
2021/08/04 06:45:09;;;;;;;;;7.00;7.00;;;;;27.61;41.22;101164.34;4938626;28;46059;-71
2021/08/04 06:47:35;;;;;;;;;6.00;6.00;;;;;27.65;41.05;101162.06;4937304;28;45299;-70
2021/08/04 06:50:00;;;;;;;;;5.00;5.00;;;;;27.68;40.60;101162.47;4934247;28;45436;-74
2021/08/04 06:52:26;;;;;;;;;5.00;5.00;;;;;27.76;40.99;101164.06;4935412;28;45493;-73
2021/08/04 06:54:51;;;;;;;;;4.25;4.25;;;;;27.79;41.06;101168.19;4934308;28;46050;-73
2021/08/04 06:57:16;;;;;;;;;5.50;5.50;;;;;27.83;40.86;101162.22;4950320;28;45288;-74
2021/08/04 06:59:42;;;;;;;;;5.75;5.25;;;;;27.86;41.06;101169.00;4936851;28;45497;-74
2021/08/04 07:02:07;;;;;;;;;5.00;5.00;;;;;27.89;40.65;101176.59;4936732;28;45489;-73
2021/08/04 07:04:33;;;;;;;;;4.75;4.75;;;;;27.92;40.59;101175.34;4936483;28;46057;-73
2021/08/04 07:07:01;;;;;;;;;5.00;5.00;;;;;27.93;40.45;101180.47;4936210;28;45383;-74
2021/08/04 07:09:27;;;;;;;;;5.25;5.00;;;;;27.94;40.36;101165.25;4936631;28;45343;-74
2021/08/04 07:11:52;;;;;;;;;5.75;4.75;;;;;27.95;40.33;101167.72;4938733;28;45453;-74
2021/08/04 07:14:18;;;;;;;;;5.00;5.00;;;;;27.98;40.72;101174.47;4936154;28;47296;-74
2021/08/04 07:16:45;;;;;;;;;5.75;5.00;;;;;28.01;40.68;101175.91;4936603;28;46105;-74
2021/08/04 07:19:11;;;;;;;;;6.25;5.25;;;;;28.02;40.72;101173.03;4936640;28;45559;-74
2021/08/04 07:21:38;;;;;;;;;5.75;5.75;;;;;28.04;40.07;101173.63;4936492;28;45346;-74
2021/08/04 07:24:04;;;;;;;;;4.50;4.50;;;;;28.04;40.69;101168.28;4938278;28;46894;-74
2021/08/04 07:26:30;;;;;;;;;5.00;5.00;;;;;28.04;40.11;101170.97;4935891;28;45250;-74
2021/08/04 07:28:56;;;;;;;;;5.75;4.75;;;;;28.09;40.54;101161.47;4934850;28;45349;-74
2021/08/04 07:31:23;;;;;;;;;9.00;5.50;;;;;28.12;40.34;101163.72;4936152;28;45422;-74
2021/08/04 07:33:48;;;;;;;;;4.00;4.00;;;;;28.17;40.46;101163.91;4936071;28;45519;-74
2021/08/04 07:36:13;;;;;;;;;6.00;6.00;;;;;28.19;40.10;101167.16;4937988;28;45271;-74
2021/08/04 07:38:39;;;;;;;;;5.75;5.00;;;;;28.20;40.59;101157.31;4936629;28;45659;-74
2021/08/04 07:41:06;;;;;;;;;3.25;3.25;;;;;28.18;40.16;101158.31;4936033;28;45394;-73
2021/08/04 07:43:31;;;;;;;;;5.00;4.75;;;;;28.17;39.86;101161.22;4935792;28;46306;-74
2021/08/04 07:45:56;;;;;;;;;5.75;5.00;;;;;28.12;40.54;101166.41;4933479;28;45380;-73
2021/08/04 07:48:22;;;;;;;;;5.75;5.25;;;;;28.10;40.16;101163.94;4936629;28;45704;-74
2021/08/04 07:50:47;;;;;;;;;5.00;5.00;;;;;28.06;40.09;101162.72;4952710;28;45342;-74
2021/08/04 07:53:12;;;;;;;;;6.25;5.50;;;;;28.03;40.13;101155.94;4935414;28;46346;-73
2021/08/04 07:55:38;;;;;;;;;7.25;5.75;;;;;28.00;39.88;101159.03;4935679;28;45295;-73
2021/08/04 07:58:03;;;;;;;;;7.25;6.25;;;;;27.98;40.45;101155.75;4935956;28;45449;-74
2021/08/04 08:00:29;;;;;;;;;5.00;5.00;;;;;27.92;39.98;101154.75;4936001;28;45358;-73
2021/08/04 08:02:54;;;;;;;;;4.50;4.50;;;;;27.91;40.07;101158.47;4937756;28;45390;-74
2021/08/04 08:05:19;;;;;;;;;4.75;4.75;;;;;27.88;40.56;101161.56;4935759;28;45312;-74
2021/08/04 08:07:50;;;;;;;;;5.50;5.50;;;;;27.82;40.76;101157.88;4934043;28;45867;-74
2021/08/04 08:10:18;;;;;;;;;8.25;7.00;;;;;27.78;40.36;101155.81;4935758;28;45520;-74
2021/08/04 08:12:44;;;;;;;;;4.00;4.00;;;;;27.79;40.86;101171.66;4935707;28;46180;-74
2021/08/04 08:15:11;;;;;;;;;5.75;5.75;;;;;27.77;40.52;101168.38;4937357;28;45432;-74
2021/08/04 08:17:37;;;;;;;;;3.75;3.75;;;;;27.72;40.50;101161.00;4936229;28;45392;-74
2021/08/04 08:20:04;;;;;;;;;5.00;5.00;;;;;27.78;40.46;101169.19;4934102;28;45531;-74
2021/08/04 08:22:29;;;;;;;;;4.50;4.50;;;;;27.77;40.73;101160.34;4936457;28;47381;-74
2021/08/04 08:24:54;;;;;;;;;6.00;6.00;;;;;27.81;40.48;101164.28;4936941;28;45448;-74
2021/08/04 08:27:20;;;;;;;;;6.25;5.25;;;;;27.81;40.89;101164.28;4937060;28;45319;-74
2021/08/04 08:29:45;;;;;;;;;4.00;4.00;;;;;27.81;40.69;101164.28;4937453;28;45401;-74
2021/08/04 08:32:10;;;;;;;;;4.50;4.00;;;;;27.82;40.35;101165.91;4936751;28;45964;-74
2021/08/04 08:34:36;;;;;;;;;4.00;3.25;;;;;27.81;41.08;101158.13;4936590;28;45472;-74
2021/08/04 08:37:01;;;;;;;;;3.50;3.50;;;;;27.83;40.56;101156.88;4936626;28;45342;-73
2021/08/04 08:39:26;;;;;;;;;4.00;4.00;;;;;27.82;40.39;101163.25;4936180;28;45374;-74
2021/08/04 08:41:52;;;;;;;;;6.00;6.00;;;;;27.80;40.36;101157.28;4937243;28;46028;-74
2021/08/04 08:44:17;;;;;;;;;5.25;5.25;;;;;27.79;40.32;101154.81;4935528;28;45470;-73
2021/08/04 08:46:43;;;;;;;;;5.25;5.00;;;;;27.79;40.59;101165.50;4936770;28;45418;-74
2021/08/04 08:49:08;;;;;;;;;6.00;4.00;;;;;27.77;40.83;101156.84;4936859;28;45410;-74
2021/08/04 08:51:34;;;;;;;;;3.00;3.00;;;;;27.76;40.53;101164.06;4936230;28;45503;-74
2021/08/04 08:54:00;;;;;;;;;7.00;6.00;;;;;27.74;40.30;101166.94;4937358;28;45363;-74
2021/08/04 08:56:25;;;;;;;;;4.50;4.50;;;;;27.74;40.29;101153.56;4936318;28;45600;-73
2021/08/04 08:58:53;;;;;;;;;5.00;5.00;;;;;27.71;40.59;101158.53;4936552;28;45516;-73
2021/08/04 09:01:31;;;;;;;;;5.00;5.00;;;;;27.74;40.21;101155.41;4936310;28;46368;-74
2021/08/04 09:04:00;;;;;;;;;4.25;4.25;;;;;27.69;40.18;101148.03;4936493;28;45534;-74
2021/08/04 09:06:56;;;;;;;;;6.75;5.00;;;;;27.73;40.90;101148.44;4936113;28;45376;-74
2021/08/04 09:09:24;;;;;;;;;4.50;4.25;;;;;27.72;40.76;101154.81;4931971;28;45295;-74
2021/08/04 09:12:05;;;;;;;;;6.00;5.00;;;;;27.69;40.50;101144.56;4934868;28;45410;-74
2021/08/04 09:14:32;;;;;;;;;5.00;5.00;;;;;27.71;40.92;101145.97;4929988;28;45472;-74
2021/08/04 09:17:04;;;;;;;;;4.50;4.50;;;;;27.72;40.33;101144.13;4930163;28;45374;-74
2021/08/04 09:19:30;;;;;;;;;3.00;3.00;;;;;27.72;40.84;101146.81;4934673;28;45500;-73
2021/08/04 09:22:22;;;;;;;;;4.00;4.00;;;;;27.71;40.51;101145.97;4934584;28;47188;-74
2021/08/04 09:24:58;;;;;;;;;6.00;6.00;;;;;27.71;40.20;101148.66;4919222;28;45534;-74
2021/08/04 09:27:45;;;;;;;;;4.75;4.75;;;;;27.71;40.73;101147.84;4934962;28;45393;-74
2021/08/04 09:30:29;;;;;;;;;6.00;6.00;;;;;27.69;40.33;101141.91;4935158;28;45332;-74
2021/08/04 09:33:09;;;;;;;;;6.00;5.00;;;;;27.67;40.37;101147.44;4935204;28;47166;-74
2021/08/04 09:35:50;;;;;;;;;4.00;4.00;;;;;27.68;40.37;101157.13;4934850;28;45507;-74
2021/08/04 09:38:16;;;;;;;;;4.00;4.00;;;;;27.65;40.47;101144.16;4934468;28;45311;-74
2021/08/04 09:40:42;;;;;;;;;6.75;6.00;;;;;27.65;39.99;101148.69;4934511;28;45386;-74
2021/08/04 09:43:08;;;;;;;;;6.00;5.00;;;;;27.64;40.82;101150.53;4934086;28;46012;-74
2021/08/04 09:45:48;;;;;;;;;3.50;3.50;;;;;27.63;40.47;101155.06;4934625;28;45304;-74
2021/08/04 09:48:19;;;;;;;;;5.00;5.00;;;;;27.62;40.71;101147.25;4932267;28;45452;-74
2021/08/04 09:50:49;;;;;;;;;4.00;4.00;;;;;27.61;40.72;101154.44;4936841;28;45533;-74
2021/08/04 09:53:21;;;;;;;;;4.75;4.50;;;;;27.62;40.15;101157.94;4936965;28;45615;-74
2021/08/04 09:56:06;;;;;;;;;4.00;4.00;;;;;27.61;40.48;101143.75;4934712;28;45435;-75
2021/08/04 09:58:32;;;;;;;;;9.75;7.00;;;;;27.61;40.40;101146.44;4930551;28;45974;-74
2021/08/04 10:01:02;;;;;;;;;4.75;4.00;;;;;27.58;40.37;101136.19;4934448;28;45473;-76
2021/08/04 10:03:28;;;;;;;;;5.75;5.00;;;;;27.60;39.66;101141.31;4933241;28;45442;-76
2021/08/04 10:05:54;;;;;;;;;7.00;7.00;;;;;27.54;39.59;101137.63;4938623;28;45160;-75
2021/08/04 10:08:20;;;;;;;;;7.00;5.25;;;;;27.51;39.43;101138.03;4935220;28;45553;-75
2021/08/04 10:10:51;;;;;;;;;5.50;4.50;;;;;27.49;40.14;101138.25;4936227;28;45497;-74
2021/08/04 10:13:20;;;;;;;;;4.75;4.75;;;;;27.48;40.00;101143.81;4934339;28;46152;-74
2021/08/04 10:15:51;;;;;;;;;6.75;6.75;;;;;27.44;39.95;101129.22;4935003;28;45543;-75
2021/08/04 10:18:27;;;;;;;;;6.25;6.25;;;;;27.47;40.23;101136.81;4932317;28;45379;-75
2021/08/04 10:21:05;;;;;;;;;7.25;6.00;;;;;27.48;40.02;101136.59;4937404;28;45442;-75
2021/08/04 10:23:32;;;;;;;;;6.25;6.25;;;;;27.42;39.86;101126.78;4930755;28;46980;-75
2021/08/04 10:26:00;;;;;;;;;6.75;6.75;;;;;27.48;39.83;101135.81;4934680;28;45355;-75
2021/08/04 10:28:27;;;;;;;;;7.50;6.75;;;;;27.51;39.97;101151.41;4927368;28;45369;-74
2021/08/04 10:30:54;;;;;;;;;8.00;8.00;;;;;27.50;40.00;101147.94;4929730;28;45410;-75
2021/08/04 10:33:19;;;;;;;;;7.25;7.25;;;;;27.51;39.85;101143.38;4927114;28;46231;-74
2021/08/04 10:35:56;;;;;;;;;6.50;6.50;;;;;27.49;40.49;101132.91;4925967;28;45420;-74
2021/08/04 10:38:24;;;;;;;;;7.00;7.00;;;;;27.52;39.98;101137.84;4934064;28;45513;-74
2021/08/04 10:41:11;;;;;;;;;9.00;7.00;;;;;27.54;39.87;101142.13;4936118;28;45542;-74
2021/08/04 10:43:54;;;;;;;;;7.25;7.00;;;;;27.51;40.39;101138.84;4933615;28;45512;-75
2021/08/04 10:46:41;;;;;;;;;7.00;5.75;;;;;27.55;40.55;101141.13;4926025;28;45436;-73
2021/08/04 10:49:09;;;;;;;;;7.75;6.50;;;;;27.54;39.83;101134.13;4931122;28;45517;-73
2021/08/04 10:51:43;;;;;;;;;7.00;7.00;;;;;27.54;40.16;101145.63;4933898;28;45355;-73
2021/08/04 10:54:17;;;;;;;;;7.50;6.00;;;;;27.53;40.73;101141.34;4930477;28;46234;-73
2021/08/04 10:56:43;;;;;;;;;5.75;5.75;;;;;27.56;40.03;101142.78;4935945;28;47172;-74
2021/08/04 10:59:08;;;;;;;;;5.25;5.25;;;;;27.56;40.62;101140.09;4932546;28;45551;-74
2021/08/04 11:01:37;;;;;;;;;7.75;6.75;;;;;27.55;40.57;101133.94;4929887;28;45430;-73
2021/08/04 11:04:05;;;;;;;;;5.50;5.50;;;;;27.53;40.55;101133.31;4927282;28;45552;-74
2021/08/04 11:06:31;;;;;;;;;6.50;6.50;;;;;27.57;40.65;101131.84;4932693;28;45560;-73
2021/08/04 11:09:11;;;;;;;;;5.00;5.00;;;;;27.59;40.43;101132.47;4932049;28;45475;-73
2021/08/04 11:11:49;;;;;;;;;7.25;7.25;;;;;27.60;40.62;101128.78;4936869;28;45543;-73
2021/08/04 11:14:38;;;;;;;;;5.00;5.00;;;;;27.56;40.63;101111.50;4932981;28;46228;-74
2021/08/04 11:17:06;;;;;;;;;6.75;6.75;;;;;27.61;40.29;101109.00;4930012;28;45607;-73
2021/08/04 11:19:35;;;;;;;;;4.75;4.50;;;;;27.63;40.08;101116.84;4932019;28;45520;-72
2021/08/04 11:22:18;;;;;;;;;5.00;5.00;;;;;27.66;40.00;101115.59;4927896;28;45527;-73
2021/08/04 11:25:04;;;;;;;;;7.00;7.00;;;;;27.65;39.45;101114.75;4934184;28;45595;-74
2021/08/04 11:27:32;;;;;;;;;5.00;5.00;;;;;27.65;39.38;101108.59;4928189;28;45524;-74